createdAt,value
2023-06-30T00:01:50.213Z,55.10
2023-06-30T00:04:19.282Z,55.20
2023-06-30T00:06:50.831Z,54.80
2023-06-30T00:09:20.461Z,55.90
2023-06-30T00:11:50.883Z,56.30
2023-06-30T00:14:19.046Z,56.60
2023-06-30T00:16:47.357Z,56.70
2023-06-30T00:19:15.623Z,56.00
2023-06-30T00:21:43.982Z,56.40
2023-06-30T00:24:14.385Z,56.40
2023-06-30T00:26:42.657Z,56.90
2023-06-30T00:29:11.841Z,58.20
2023-06-30T00:31:40.397Z,59.40
2023-06-30T00:34:09.836Z,59.30
2023-06-30T00:36:38.171Z,60.10
2023-06-30T00:39:06.338Z,57.70
2023-06-30T00:41:36.085Z,57.40
2023-06-30T00:44:04.371Z,56.80
2023-06-30T00:46:32.670Z,57.20
2023-06-30T00:49:00.834Z,58.60
2023-06-30T00:51:29.035Z,59.40
2023-06-30T00:53:57.203Z,58.40
2023-06-30T00:56:25.374Z,57.10
2023-06-30T00:58:54.884Z,58.50
2023-06-30T01:01:25.967Z,60.00
2023-06-30T01:03:57.673Z,60.00
2023-06-30T01:06:28.967Z,58.60
2023-06-30T01:08:59.575Z,58.70
2023-06-30T01:11:27.674Z,60.00
2023-06-30T01:13:57.608Z,60.50
2023-06-30T01:16:25.934Z,59.50
2023-06-30T01:18:54.740Z,58.80
2023-06-30T01:21:22.991Z,59.40
2023-06-30T01:23:53.794Z,59.70
2023-06-30T01:26:22.170Z,59.20
2023-06-30T01:28:52.365Z,59.60
2023-06-30T01:31:22.131Z,59.60
2023-06-30T01:33:50.755Z,59.60
2023-06-30T01:36:18.877Z,59.90
2023-06-30T01:38:47.032Z,59.10
2023-06-30T01:41:15.239Z,56.90
2023-06-30T01:43:43.454Z,56.30
2023-06-30T01:46:11.605Z,56.20
2023-06-30T01:48:42.285Z,56.40
2023-06-30T01:51:10.429Z,56.60
2023-06-30T01:53:38.519Z,56.80
2023-06-30T01:56:06.725Z,56.80
2023-06-30T01:58:34.871Z,56.50
2023-06-30T02:01:03.010Z,56.70
2023-06-30T02:03:31.724Z,56.90
2023-06-30T02:06:01.266Z,57.70
2023-06-30T02:08:29.426Z,58.00
2023-06-30T02:10:57.583Z,59.30
2023-06-30T02:13:25.719Z,60.80
2023-06-30T02:15:53.927Z,60.70
2023-06-30T02:18:23.605Z,60.50
2023-06-30T02:20:51.737Z,60.40
2023-06-30T02:23:21.442Z,59.90
2023-06-30T02:25:49.620Z,60.40
2023-06-30T02:28:17.797Z,59.70
2023-06-30T02:30:45.967Z,58.80
2023-06-30T02:33:14.100Z,59.00
2023-06-30T02:35:42.290Z,59.10
2023-06-30T02:38:11.940Z,60.40
2023-06-30T02:40:44.132Z,60.40
2023-06-30T02:43:12.276Z,61.10
2023-06-30T02:45:40.397Z,60.90
2023-06-30T02:48:08.529Z,60.80
2023-06-30T02:50:36.668Z,61.10
2023-06-30T02:53:05.304Z,60.50
2023-06-30T02:55:36.467Z,59.50
2023-06-30T02:58:07.570Z,59.30
2023-06-30T03:00:35.965Z,59.30
2023-06-30T03:03:05.719Z,58.90
2023-06-30T03:05:35.425Z,57.30
2023-06-30T03:08:05.332Z,58.00
2023-06-30T03:10:33.526Z,57.60
2023-06-30T03:13:01.710Z,57.70
2023-06-30T03:15:31.366Z,58.10
2023-06-30T03:17:59.601Z,58.50
2023-06-30T03:20:27.908Z,59.10
2023-06-30T03:22:56.140Z,60.20
2023-06-30T03:25:24.304Z,60.50
2023-06-30T03:27:52.558Z,60.30
2023-06-30T03:30:20.816Z,59.20
2023-06-30T03:32:50.395Z,58.30
2023-06-30T03:35:18.678Z,59.40
2023-06-30T03:37:46.782Z,58.30
2023-06-30T03:40:15.166Z,57.50
2023-06-30T03:42:44.928Z,58.20
2023-06-30T03:45:13.121Z,57.90
2023-06-30T03:47:41.372Z,57.50
2023-06-30T03:50:11.948Z,57.10
2023-06-30T03:52:40.393Z,57.20
2023-06-30T03:55:09.222Z,58.10
2023-06-30T03:57:37.474Z,57.30
2023-06-30T04:00:06.765Z,57.70
2023-06-30T04:02:35.046Z,56.90
2023-06-30T04:05:03.326Z,57.20
2023-06-30T04:07:33.048Z,56.30
2023-06-30T04:10:01.224Z,57.20
2023-06-30T04:12:29.388Z,57.60
2023-06-30T04:14:57.553Z,57.50
2023-06-30T04:17:25.677Z,58.40
2023-06-30T04:19:53.923Z,59.70
2023-06-30T04:22:22.115Z,60.10
2023-06-30T04:24:51.785Z,59.40
2023-06-30T04:27:19.951Z,58.40
2023-06-30T04:29:48.057Z,57.90
2023-06-30T04:32:16.175Z,57.70
2023-06-30T04:34:45.684Z,57.90
2023-06-30T04:37:14.568Z,57.90
2023-06-30T04:39:43.396Z,56.80
2023-06-30T04:42:13.185Z,56.30
2023-06-30T04:44:41.458Z,56.90
2023-06-30T04:47:09.866Z,58.60
2023-06-30T04:49:38.051Z,59.40
2023-06-30T04:52:07.242Z,58.10
2023-06-30T04:54:35.489Z,57.40
2023-06-30T04:57:04.150Z,58.00
2023-06-30T04:59:33.702Z,58.60
2023-06-30T05:02:02.726Z,57.60
2023-06-30T05:04:30.865Z,56.90
2023-06-30T05:06:59.032Z,57.60
2023-06-30T05:09:27.260Z,57.40
2023-06-30T05:11:55.413Z,58.10
2023-06-30T05:14:23.505Z,58.90
2023-06-30T05:16:53.262Z,58.10
2023-06-30T05:19:21.429Z,57.50
2023-06-30T05:21:49.648Z,58.00
2023-06-30T05:24:17.850Z,58.10
2023-06-30T05:26:46.266Z,57.50
2023-06-30T05:29:14.389Z,57.90
2023-06-30T05:31:44.753Z,57.20
2023-06-30T05:34:16.972Z,56.90
2023-06-30T05:36:46.335Z,56.40
2023-06-30T05:39:15.481Z,56.50
2023-06-30T05:41:43.943Z,55.30
2023-06-30T05:44:12.261Z,54.60
2023-06-30T05:46:40.543Z,55.80
2023-06-30T05:49:08.830Z,56.70
2023-06-30T05:51:38.369Z,56.20
2023-06-30T05:54:07.130Z,55.20
2023-06-30T05:56:36.049Z,55.90
2023-06-30T05:59:04.391Z,55.80
2023-06-30T06:01:32.653Z,55.50
2023-06-30T06:04:02.795Z,55.50
2023-06-30T06:06:31.566Z,55.80
2023-06-30T06:09:01.572Z,55.70
2023-06-30T06:11:30.108Z,55.90
2023-06-30T06:13:58.547Z,56.00
2023-06-30T06:16:27.397Z,56.00
2023-06-30T06:18:58.528Z,55.30
2023-06-30T06:21:30.951Z,56.30
2023-06-30T06:24:00.954Z,55.10
2023-06-30T06:26:29.238Z,56.40
2023-06-30T06:28:59.564Z,56.90
2023-06-30T06:31:43.277Z,56.50
2023-06-30T06:34:11.797Z,55.70
2023-06-30T06:36:49.457Z,57.00
2023-06-30T06:39:23.956Z,56.90
2023-06-30T06:41:58.236Z,56.20
2023-06-30T06:44:39.692Z,56.50
2023-06-30T06:47:49.685Z,55.70
2023-06-30T06:50:18.323Z,57.10
2023-06-30T06:52:46.801Z,58.00
2023-06-30T06:55:27.571Z,57.40
2023-06-30T06:57:57.826Z,58.40
2023-06-30T07:00:29.172Z,59.30
2023-06-30T07:02:57.809Z,59.40
2023-06-30T07:05:26.729Z,59.00
2023-06-30T07:07:55.010Z,57.90
2023-06-30T07:10:24.804Z,57.60
2023-06-30T07:12:54.422Z,57.40
2023-06-30T07:15:22.917Z,59.70
2023-06-30T07:17:51.413Z,59.10
2023-06-30T07:20:20.167Z,58.60
2023-06-30T07:22:50.452Z,58.60
2023-06-30T07:25:20.728Z,58.40
2023-06-30T07:27:55.850Z,58.40
2023-06-30T07:30:27.167Z,58.00
2023-06-30T07:32:56.723Z,57.10
2023-06-30T07:35:25.406Z,56.80
2023-06-30T07:37:53.960Z,56.00
2023-06-30T07:40:24.220Z,57.40
2023-06-30T07:42:55.951Z,57.50
2023-06-30T07:45:24.665Z,57.00
2023-06-30T07:47:53.734Z,57.40
2023-06-30T07:50:22.140Z,56.00
2023-06-30T07:52:51.141Z,57.30
2023-06-30T07:55:20.226Z,58.20
2023-06-30T07:57:49.855Z,57.00
2023-06-30T08:00:21.299Z,58.20
2023-06-30T08:02:50.176Z,58.00
2023-06-30T08:05:19.267Z,57.80
2023-06-30T08:07:51.411Z,58.30
2023-06-30T08:10:20.363Z,58.90
2023-06-30T08:12:48.986Z,58.80
2023-06-30T08:15:17.725Z,58.10
2023-06-30T08:17:54.569Z,59.20
2023-06-30T08:20:26.294Z,59.50
2023-06-30T08:22:56.017Z,58.80
2023-06-30T08:25:25.016Z,58.60
2023-06-30T08:27:53.823Z,59.00
2023-06-30T08:30:25.006Z,58.30
2023-06-30T08:32:57.401Z,57.40
2023-06-30T08:35:26.237Z,57.30
2023-06-30T08:37:54.885Z,59.10
2023-06-30T08:40:24.618Z,57.10
2023-06-30T08:42:53.078Z,55.10
2023-06-30T08:45:21.508Z,56.60
2023-06-30T08:47:50.240Z,57.60
2023-06-30T08:50:20.445Z,56.50
2023-06-30T08:52:49.935Z,55.60
2023-06-30T08:55:18.744Z,54.80
2023-06-30T08:57:48.516Z,56.70
2023-06-30T09:00:18.011Z,53.80
2023-06-30T09:02:46.739Z,57.00
2023-06-30T09:05:15.372Z,56.10
2023-06-30T09:07:49.901Z,55.70
2023-06-30T09:10:21.415Z,54.40
2023-06-30T09:12:50.752Z,56.30
2023-06-30T09:15:20.245Z,56.20
2023-06-30T09:17:48.893Z,54.30
2023-06-30T09:20:17.462Z,55.60
2023-06-30T09:22:54.852Z,54.50
2023-06-30T09:25:42.655Z,55.00
2023-06-30T09:28:13.480Z,55.50
2023-06-30T09:30:43.051Z,55.70
2023-06-30T09:33:11.914Z,56.00
2023-06-30T09:35:42.838Z,56.00
2023-06-30T09:38:13.859Z,55.50
2023-06-30T09:40:44.934Z,56.90
2023-06-30T09:43:17.897Z,56.50
2023-06-30T09:45:48.878Z,55.40
2023-06-30T09:48:17.959Z,55.90
2023-06-30T09:50:49.167Z,56.50
2023-06-30T09:53:30.487Z,56.20
2023-06-30T09:55:58.970Z,58.00
2023-06-30T09:58:27.518Z,56.80
2023-06-30T10:00:55.904Z,55.40
2023-06-30T10:03:24.477Z,58.40
2023-06-30T10:05:53.147Z,57.50
2023-06-30T10:08:22.126Z,56.80
2023-06-30T10:10:55.698Z,56.70
2023-06-30T10:13:24.676Z,59.30
2023-06-30T10:15:53.631Z,59.50
2023-06-30T10:18:22.567Z,58.60
2023-06-30T10:20:51.010Z,60.70
2023-06-30T10:23:21.638Z,60.80
2023-06-30T10:25:52.482Z,62.20
2023-06-30T10:28:21.685Z,62.00
2023-06-30T10:30:51.953Z,61.50
2023-06-30T10:33:21.203Z,60.60
2023-06-30T10:35:50.030Z,60.10
2023-06-30T10:38:21.102Z,59.40
2023-06-30T10:40:50.035Z,61.20
2023-06-30T10:43:22.537Z,57.00
2023-06-30T10:46:09.606Z,57.20
2023-06-30T10:48:40.194Z,55.30
2023-06-30T10:51:08.684Z,56.30
2023-06-30T10:53:37.203Z,56.70
2023-06-30T10:56:06.479Z,58.10
2023-06-30T10:58:37.794Z,56.20
2023-06-30T11:01:06.504Z,57.10
2023-06-30T11:04:08.266Z,55.50
2023-06-30T11:06:38.066Z,55.50
2023-06-30T11:09:13.695Z,54.30
2023-06-30T11:11:50.985Z,54.20
2023-06-30T11:14:34.431Z,54.90
2023-06-30T11:17:04.070Z,55.30
2023-06-30T11:19:32.259Z,53.50
2023-06-30T11:22:22.983Z,57.40
2023-06-30T11:24:52.231Z,57.10
2023-06-30T11:27:29.150Z,58.30
2023-06-30T11:30:01.905Z,55.90
2023-06-30T11:32:30.829Z,58.20
2023-06-30T11:35:00.203Z,57.30
2023-06-30T11:37:31.312Z,56.30
2023-06-30T11:40:01.134Z,55.20
2023-06-30T11:42:30.075Z,55.50
2023-06-30T11:44:58.325Z,57.80
2023-06-30T11:47:28.022Z,58.60
2023-06-30T11:49:56.395Z,59.30
2023-06-30T11:52:24.669Z,60.80
2023-06-30T11:54:54.947Z,60.00
2023-06-30T11:57:23.490Z,60.10
2023-06-30T11:59:51.914Z,59.10
2023-06-30T12:02:22.251Z,59.20
2023-06-30T12:04:51.995Z,58.30
2023-06-30T12:07:20.232Z,58.70
2023-06-30T12:09:52.914Z,58.00
2023-06-30T12:12:31.440Z,60.10
2023-06-30T12:14:59.777Z,59.20
2023-06-30T12:17:30.579Z,59.90
2023-06-30T12:20:00.438Z,60.80
2023-06-30T12:22:29.241Z,60.30
2023-06-30T12:24:57.613Z,61.20
2023-06-30T12:27:27.388Z,62.70
2023-06-30T12:29:55.920Z,62.60
2023-06-30T12:32:28.589Z,60.80
2023-06-30T12:35:07.195Z,61.40
2023-06-30T12:37:35.808Z,61.50
2023-06-30T12:40:04.584Z,60.90
2023-06-30T12:42:32.861Z,61.00
2023-06-30T12:45:01.283Z,61.60
2023-06-30T12:47:29.602Z,61.70
2023-06-30T12:49:58.081Z,61.10
2023-06-30T12:52:27.674Z,62.10
2023-06-30T12:55:22.268Z,62.40
2023-06-30T12:57:50.971Z,61.30
2023-06-30T13:00:20.129Z,61.50
2023-06-30T13:02:48.536Z,61.60
2023-06-30T13:05:16.840Z,61.90
2023-06-30T13:07:46.392Z,62.30
2023-06-30T13:10:14.981Z,61.90
2023-06-30T13:12:43.327Z,61.70
2023-06-30T13:15:11.890Z,60.80
2023-06-30T13:17:59.988Z,61.40
2023-06-30T13:20:28.396Z,61.60
2023-06-30T13:25:30.782Z,62.40
2023-06-30T13:27:58.939Z,62.10
2023-06-30T13:30:28.164Z,63.00
2023-06-30T13:32:56.427Z,60.70
2023-06-30T13:35:25.782Z,60.10
2023-06-30T13:37:57.150Z,59.90
2023-06-30T13:40:27.048Z,59.70
2023-06-30T13:42:55.292Z,59.10
2023-06-30T13:45:25.994Z,59.40
2023-06-30T13:47:54.203Z,59.50
2023-06-30T13:50:22.724Z,58.10
2023-06-30T13:52:51.261Z,56.20
2023-06-30T13:55:19.536Z,57.50
2023-06-30T13:57:51.992Z,55.60
2023-06-30T14:00:21.378Z,54.70
2023-06-30T14:02:49.537Z,55.20
2023-06-30T14:05:17.907Z,54.00
2023-06-30T14:07:46.146Z,53.60
2023-06-30T14:10:14.411Z,52.60
2023-06-30T14:12:42.882Z,53.30
2023-06-30T14:15:13.093Z,50.30
2023-06-30T14:17:41.418Z,51.40
2023-06-30T14:20:10.328Z,49.90
2023-06-30T14:22:38.740Z,51.60
2023-06-30T14:25:07.545Z,50.60
2023-06-30T14:27:35.712Z,49.40
2023-06-30T14:30:04.112Z,48.20
2023-06-30T14:32:33.791Z,49.90
2023-06-30T14:35:02.009Z,53.50
2023-06-30T14:37:30.223Z,52.20
2023-06-30T14:39:58.393Z,51.00
2023-06-30T14:42:32.125Z,50.50
2023-06-30T14:45:01.783Z,49.30
2023-06-30T14:47:31.514Z,48.00
2023-06-30T14:50:01.218Z,50.60
2023-06-30T14:52:29.366Z,49.60
2023-06-30T14:54:57.644Z,50.60
2023-06-30T14:57:26.097Z,48.80
2023-06-30T14:59:54.331Z,47.60
2023-06-30T15:02:22.566Z,46.70
2023-06-30T15:04:51.238Z,45.50
2023-06-30T15:07:20.872Z,47.80
2023-06-30T15:09:49.109Z,47.30
2023-06-30T15:12:17.253Z,48.30
2023-06-30T15:14:48.296Z,47.50
2023-06-30T15:17:16.496Z,45.80
2023-06-30T15:19:46.549Z,46.20
2023-06-30T15:22:15.692Z,47.50
2023-06-30T15:24:45.085Z,47.40
2023-06-30T15:27:13.264Z,46.90
2023-06-30T15:29:41.403Z,45.00
2023-06-30T15:32:09.856Z,43.90
2023-06-30T15:34:38.011Z,44.30
2023-06-30T15:37:06.931Z,43.60
2023-06-30T15:39:35.108Z,43.20
2023-06-30T15:42:08.858Z,43.50
2023-06-30T15:44:37.144Z,44.30
2023-06-30T15:47:05.707Z,43.10
2023-06-30T15:49:37.112Z,43.60
2023-06-30T15:52:05.822Z,41.20
2023-06-30T15:54:37.406Z,42.60
2023-06-30T15:57:16.440Z,45.20
2023-06-30T15:59:53.959Z,44.60
2023-06-30T16:02:22.240Z,43.30
2023-06-30T16:04:51.410Z,41.60
2023-06-30T16:07:20.826Z,41.10
2023-06-30T16:09:51.708Z,41.80
2023-06-30T16:12:22.965Z,42.10
2023-06-30T16:14:51.184Z,40.90
2023-06-30T16:17:20.418Z,40.10
2023-06-30T16:19:48.493Z,40.60
2023-06-30T16:22:17.069Z,41.60
2023-06-30T16:24:46.046Z,40.60
2023-06-30T16:27:14.335Z,40.90
2023-06-30T16:29:43.840Z,40.90
2023-06-30T16:32:12.088Z,42.00
2023-06-30T16:34:40.304Z,42.10
2023-06-30T16:37:08.651Z,40.80
2023-06-30T16:39:36.912Z,41.30
2023-06-30T16:42:05.511Z,41.40
2023-06-30T16:44:33.640Z,41.30
2023-06-30T16:47:03.614Z,42.30
2023-06-30T16:49:33.370Z,42.30
2023-06-30T16:52:01.675Z,41.50
2023-06-30T16:54:29.865Z,42.80
2023-06-30T16:56:58.304Z,42.20
2023-06-30T16:59:26.521Z,41.10
2023-06-30T17:01:55.627Z,41.10
2023-06-30T17:04:26.358Z,41.70
2023-06-30T17:06:54.626Z,41.40
2023-06-30T17:09:23.384Z,41.00
2023-06-30T17:11:51.770Z,40.80
2023-06-30T17:14:19.876Z,40.40
2023-06-30T17:16:48.311Z,41.50
2023-06-30T17:19:16.652Z,40.60
2023-06-30T17:21:46.370Z,41.40
2023-06-30T17:24:14.508Z,40.70
2023-06-30T17:26:42.895Z,40.80
2023-06-30T17:29:11.447Z,41.70
2023-06-30T17:31:39.820Z,41.70
2023-06-30T17:34:08.018Z,42.10
2023-06-30T17:36:36.459Z,41.90
2023-06-30T17:39:06.105Z,41.30
2023-06-30T17:41:34.322Z,44.50
2023-06-30T17:44:02.738Z,46.40
2023-06-30T17:46:30.970Z,47.60
2023-06-30T17:49:23.589Z,49.70
2023-06-30T17:51:54.670Z,52.60
2023-06-30T17:54:24.229Z,52.50
2023-06-30T17:56:52.700Z,56.60
2023-06-30T17:59:21.607Z,58.20
2023-06-30T18:01:50.003Z,58.40
2023-06-30T18:04:18.422Z,58.30
2023-06-30T18:07:08.593Z,58.60
2023-06-30T18:09:39.272Z,59.00
2023-06-30T18:12:08.556Z,61.60
2023-06-30T18:14:39.645Z,61.00
2023-06-30T18:17:08.003Z,59.80
2023-06-30T18:19:36.397Z,59.30
2023-06-30T18:22:05.143Z,59.70
2023-06-30T18:24:35.294Z,58.50
2023-06-30T18:27:07.109Z,58.20
2023-06-30T18:29:40.716Z,60.40
2023-06-30T18:32:09.606Z,59.00
2023-06-30T18:34:37.746Z,59.00
2023-06-30T18:37:08.676Z,59.90
2023-06-30T18:39:36.857Z,59.70
2023-06-30T18:42:07.360Z,61.70
2023-06-30T18:44:37.404Z,62.30
2023-06-30T18:47:07.229Z,61.90
2023-06-30T18:49:35.310Z,60.60
2023-06-30T18:52:03.888Z,59.40
2023-06-30T18:54:32.063Z,59.40
2023-06-30T18:57:00.205Z,61.10
2023-06-30T18:59:29.725Z,61.70
2023-06-30T19:01:57.984Z,62.10
2023-06-30T19:04:26.430Z,61.40
2023-06-30T19:06:54.780Z,60.50
2023-06-30T19:09:23.196Z,61.00
2023-06-30T19:11:51.363Z,60.90
2023-06-30T19:14:19.525Z,61.50
2023-06-30T19:16:49.335Z,59.30
2023-06-30T19:19:17.485Z,59.20
2023-06-30T19:21:45.605Z,59.60
2023-06-30T19:24:14.874Z,60.50
2023-06-30T19:26:43.001Z,61.10
2023-06-30T19:29:11.210Z,60.40
2023-06-30T19:31:39.437Z,61.90
2023-06-30T19:34:09.025Z,61.90
2023-06-30T19:36:37.888Z,60.70
2023-06-30T19:39:06.148Z,61.20
2023-06-30T19:41:34.390Z,61.20
2023-06-30T19:44:02.513Z,62.90
2023-06-30T19:46:32.494Z,61.70
2023-06-30T19:49:03.303Z,60.90
2023-06-30T19:51:32.816Z,61.90
2023-06-30T19:54:00.912Z,60.90
2023-06-30T19:56:29.172Z,61.20
2023-06-30T19:58:57.437Z,62.20
2023-06-30T20:01:26.920Z,60.90
2023-06-30T20:03:55.462Z,61.10
2023-06-30T20:06:23.574Z,59.80
2023-06-30T20:08:53.166Z,60.10
2023-06-30T20:11:21.372Z,60.70
2023-06-30T20:13:49.591Z,60.70
2023-06-30T20:16:17.837Z,61.00
2023-06-30T20:18:46.008Z,60.80
2023-06-30T20:21:14.233Z,60.50
2023-06-30T20:23:42.428Z,61.50
2023-06-30T20:26:11.935Z,61.00
2023-06-30T20:28:40.182Z,61.00
2023-06-30T20:31:08.378Z,61.00
2023-06-30T20:33:36.734Z,60.60
2023-06-30T20:36:05.127Z,60.90
2023-06-30T20:38:33.290Z,60.10
2023-06-30T20:41:01.403Z,60.70
2023-06-30T20:43:30.964Z,61.80
2023-06-30T20:45:59.184Z,61.70
2023-06-30T20:48:27.434Z,61.60
2023-06-30T20:50:55.619Z,60.90
2023-06-30T20:53:23.780Z,62.50
2023-06-30T20:55:52.450Z,62.60
2023-06-30T20:58:20.616Z,61.50
2023-06-30T21:00:50.090Z,62.20
2023-06-30T21:03:18.417Z,62.20
2023-06-30T21:05:46.624Z,61.80
2023-06-30T21:08:17.900Z,63.90
2023-06-30T21:10:46.681Z,62.80
2023-06-30T21:13:15.174Z,63.30
2023-06-30T21:15:43.358Z,62.20
2023-06-30T21:18:12.917Z,61.60
2023-06-30T21:20:41.105Z,60.30
2023-06-30T21:23:09.417Z,61.10
2023-06-30T21:25:37.557Z,60.00
2023-06-30T21:28:06.141Z,59.90
2023-06-30T21:30:34.339Z,61.60
2023-06-30T21:33:04.114Z,60.50
2023-06-30T21:35:34.034Z,60.20
2023-06-30T21:38:02.158Z,60.50
2023-06-30T21:40:30.294Z,60.50
2023-06-30T21:42:58.500Z,60.00
2023-06-30T21:45:26.920Z,60.80
2023-06-30T21:47:55.105Z,60.70
2023-06-30T21:50:23.376Z,60.40
2023-06-30T21:52:53.060Z,61.00
2023-06-30T21:55:21.362Z,60.30
2023-06-30T21:57:51.294Z,60.50
2023-06-30T22:00:19.883Z,62.00
2023-06-30T22:02:50.994Z,62.30
2023-06-30T22:05:19.200Z,62.40
2023-06-30T22:07:47.334Z,61.70
2023-06-30T22:10:17.108Z,63.10
2023-06-30T22:12:45.227Z,63.40
2023-06-30T22:15:13.357Z,63.40
2023-06-30T22:17:41.639Z,62.50
2023-06-30T22:20:10.845Z,62.60
2023-06-30T22:22:38.963Z,63.30
2023-06-30T22:25:07.858Z,63.70
2023-06-30T22:27:39.555Z,63.50
2023-06-30T22:30:08.769Z,62.80
2023-06-30T22:32:37.316Z,63.00
2023-06-30T22:35:06.019Z,63.30
2023-06-30T22:37:34.316Z,65.00
2023-06-30T22:40:02.707Z,64.50
2023-06-30T22:42:30.821Z,62.30
2023-06-30T22:45:01.771Z,62.50
2023-06-30T22:47:32.134Z,62.90
2023-06-30T22:50:00.351Z,62.60
2023-06-30T22:52:28.568Z,63.30
2023-06-30T22:54:56.824Z,62.80
2023-06-30T22:57:24.938Z,63.60
2023-06-30T22:59:53.237Z,64.80
2023-06-30T23:02:24.810Z,64.10
2023-06-30T23:04:53.016Z,65.20
2023-06-30T23:07:21.223Z,64.50
2023-06-30T23:09:49.340Z,63.30
2023-06-30T23:12:17.485Z,63.40
2023-06-30T23:14:46.092Z,63.50
2023-06-30T23:17:16.984Z,63.80
2023-06-30T23:19:49.047Z,64.20
2023-06-30T23:22:17.975Z,64.00
2023-06-30T23:24:50.739Z,63.80
2023-06-30T23:27:19.447Z,63.40
2023-06-30T23:29:50.685Z,62.90
2023-06-30T23:32:20.584Z,62.60
2023-06-30T23:34:50.671Z,63.70
2023-06-30T23:37:19.185Z,63.80
2023-06-30T23:39:49.515Z,64.50
2023-06-30T23:42:17.702Z,64.70
2023-06-30T23:44:45.953Z,64.20
2023-06-30T23:47:18.133Z,65.80
2023-06-30T23:49:49.437Z,66.90
2023-06-30T23:52:17.762Z,66.60
2023-06-30T23:54:45.949Z,65.80
2023-06-30T23:57:14.091Z,66.50
2023-06-30T23:59:42.205Z,65.20
